Terminal Aerodrome Forecast
Issued by NWS

Home | Current Version | Previous Version | Text Only | Print | Product List | Glossary On
Versions: 1 2 3 4 5 6 7 8 9 10 11 12 13 14
967
FTUS46 KLOX 221737
TAFVNY
TAF
KVNY 221737Z 2218/2318 15005KT P6SM SCT035
     FM222100 19009KT P6SM SCT040
     FM230300 24005KT P6SM VCSH SCT050
     FM230500 34009KT P6SM VCSH SCT060
     FM231100 35012KT P6SM SKC=

USA.gov is the U.S. government's official web portal to all federal, state and local government web resources and services.